Eurocity race tour Lille (59) - A

Date : 27/11/2016

Place Nom Licence Catégorie Club Temps CN à J-60 Points Différence Nouveau CN
1 LEPOUTRE Benjamin 12967 H21 5907NO 1:03:11 7708 7033 -675 7954
2 HALTZ Louis 24070 H20 5907NO 1:04:13 7843 6920 -923 7893
3 LEDEZ Rémi 33757 H21 5907NO 1:04:26 6897 5731
4 LE BORGNE Julien 8019 H21 2904BR 1:04:31 7570 6888 -682 7542
5 NILSSON Martin 32688 H21 1307PZ 1:04:59 7195 6839 -356 7625
6 QUEVAL Charles-Hubert 32017 H21 5907NO 1:05:04 6094 6830 +736 6485
7 LE DEVEHAT Simon 29325 H21 7720IF 1:11:16 5072 6236 +1164 5784
8 CLEMENT-AGONI Stéphane 11390 H21 2108BO 1:11:48 6265 6189 -76 6516
9 BLUM Simon 12977 H21 5116CA 1:13:19 6472 6061 -411 6498
10 LIEBAERT Baptiste 28908 H21 5906NO 1:13:33 4707 6042 +1335 6078
11 CREFCOEUR Lievin 13758 H18 5907NO 1:14:01 5809 6004 +195 5853
12 MALAK Maxence 20648 H21 5907NO 1:14:18 5520 5981 +461 6044
13 BOURGOGNE Gaëtan 13760 H21 5907NO 1:17:05 4611 5765 +1154 5537
14 GRATTEPANCHE Florent 30350 H18 5907NO 1:17:31 6147 5733 -414 6067
15 MAHIEU Pierre 6999 H21 5907NO 1:20:54 6386 5493 -893 6452
16 CLARET clement 31274 H21 3408LR 1:20:59 4902 5487 +585 5368
17 DUBOIS Morgan 34120 H21 5906NO 1:21:24 5459 5241
18 ANDRE Camille 11655 H21 5116CA 1:21:42 7421 5439 -1982 7459
19 BLUM Jean-Guy 13673 H21 5116CA 1:22:06 6507 5413 -1094 6660
20 COQUELET Guillem 32882 H21 5906NO 1:22:08 5506 5411 -95 5540
21 MEYNIER François 29401 H21 7004FC 1:26:50 4327 5118 +791 5129
22 WILD Sebastian 13235 H21 2704NM 1:27:11 5316 5097 -219 5486
23 DUMONT Julien 17780 H21 5116CA 1:27:44 6066 5065 -1001 6100
24 CLEMENT-AGONI Benjamin 11391 H21 2108BO 1:31:12 5369 4873 -496 5369
25 GOIN Guillaume 16823 H21 9502IF 1:32:07 5309 4824 -485 5349
26 FAUCHEUX Cédric 29765 H21 7807IF 1:33:02 4100 4777 +677 4731
27 HERY Clément 28376 H21 5116CA 1:35:34 5097 4650 -447 5245
28 POULAIN Yannick 9171 H21 5909NO 1:37:40 7371 4550 -2821 7395
29 MYSOET Mickaël 31483 H21 5907NO 1:37:45 5094 4546 -548 5161
30 CREFCOEUR Philippe 1233 H50 5907NO 1:41:38 5973 4372 -1601 5903
HUET Nicolas 31793 H21 5116CA abandon 4711 0 4728
DEWU Camille 34090 H21 6008PI abandon 0 0
DELAPORTE Arthur 18191 H21 5116CA abandon 5699 0 5837
nc LEQUINT Rémi 17574 H21 5907NO 1:13:36